Terminal Aerodrome Forecast
Issued by NWS

Home | Current Version | Previous Version | Text Only | Print | Product List | Glossary On
Versions: 1 2 3 4 5 6 7 8 9 10 11 12 13 14 15 16 17 18 19 20 21 22 23 24 25 26 27 28 29 30 31 32 33 34 35 36 37 38 39 40 41 42 43 44 45 46
000
FTUS45 KGJT 281738
TAFDRO
TAF
KDRO 281738Z 2818/0118 06004KT 1/4SM +SN FZFG VV009
      TEMPO 2818/2820 1SM -SN BR OVC015
     FM282000 07005KT 1SM -SN BR OVC015
      TEMPO 2820/2823 4SM -SN BR SCT015 OVC027
     FM282300 13005KT 2SM -SNRA OVC010
     FM010600 25007KT 1SM -SN BR OVC010=

USA.gov is the U.S. government's official web portal to all federal, state and local government web resources and services.